KFFZKSGU

Guest
Details From KFFZ - FALCON FLD
To KSGU - [X] St George Muni
Flight Number -
Tags generated
Created
Modified
Stats Distance 242 nm / 447 km
Max Altitude 30,100 ft / 9,174 m
Waypoints 5
Social Downloads 0
Likes 0
Share VATSIM

Download

Looking for another format? Having issues loading an existing format? Contact us
Advertisement - Login to hide

Notes

Basic altitude profile: - Ascent Rate: 2500ft/min - Ascent Speed: 250kts - Cruise Altitude: 35000ft - Cruise Speed: 420kts - Descent Rate: 1500ft/min - Descent Speed: 250kts

Route

KFFZ KIDDR J11 NAVHO V257 BISOP KSGU

ID Type Via Altitude Latitude Longitude Leg Dist Tot Dist Heading (true) Name
O KFFZ APT - 0 ft / 0 m 33.46093˚ -111.72845˚ - 0 nm - FALCON FLD
KIDDR FIX - 30,100 ft / 9,174 m 34.94436˚ -112.46656˚ 96 nm 96 nm 338° / 337° -
NAVHO FIX J11 (AWY-HI) 25,100 ft / 7,650 m 35.40695˚ -112.43987˚ 27 nm 124 nm 3° / 3° -
BISOP FIX V257 (AWY-LO) 17,000 ft / 5,182 m 35.58224˚ -112.42392˚ 10 nm 134 nm 4° / 4° -
O KSGU APT - 0 ft / 0 m 37.09059˚ -113.59308˚ 106 nm 241 nm 328° / 328° [X] St George Muni

Altitude Profile

Advertisement - Login to hide

Weather


0- 5 10 15 20 25 30 35+ Temperature / ° C

Clouds and Precipitation
Forecast for 2017-12-16 06:00 UTC. Updated 32 minutes ago

Ground ~20,000 ft ~40,000 ft Winds

KFFZ

Details ICAO KFFZ (FFZ)
Name FALCON FLD
Region United States
Timezone America/Phoenix (UTC-7.0)
Stats Elevation 1,394 ft / 425 m (AMSL)
Location 33.460932° -111.728454°
Runways 2
Magnetic Variation 10.232° E

METAR

KFFZ 160047Z 25005KT 20SM SKC 18/M04 A3004

Decode

TAF

Not found

Departure Runways

ID Width Length Bearing (true) Bearing (mag) Surface Threshold Offset Overrun Length
04L 75 ft / 23 m 3,798 ft / 1,158 m 51.02° 40.79° Asphalt 0 ft / 0 m 0 ft / 0 m
04R 100 ft / 30 m 5,101 ft / 1,555 m 51.04° 40.81° Asphalt 0 ft / 0 m 0 ft / 0 m
22L 100 ft / 30 m 5,101 ft / 1,555 m 231.04° 220.81° Asphalt 0 ft / 0 m 0 ft / 0 m
22R 75 ft / 23 m 3,798 ft / 1,158 m 231.03° 220.80° Asphalt 0 ft / 0 m 0 ft / 0 m

KSGU

Details ICAO KSGU (SGU)
Name [X] St George Muni
Region United States
Timezone America/Denver (UTC-7.0)
Stats Elevation 2,941 ft / 896 m (AMSL)
Location 37.090590° -113.593075°
Runways 1
Magnetic Variation 11.385° E

METAR

KSGU 160056Z AUTO 00000KT 7SM CLR 09/M09 A3008 RMK AO2 SLP191 T00891094

Decode

TAF

TAF KSGU 152331Z 1600/1624 VRB05KT P6SM BKN200 FM162100 24015KT P6SM SCT150 BKN200 FM162300 36016KT P6SM SCT100 BKN140

Decode

Destination Runways

ID Width Length Bearing (true) Bearing (mag) Surface Threshold Offset Overrun Length
16 98 ft / 30 m 6,612 ft / 2,015 m 180.21° 168.82° Asphalt 194 ft / 59 m 151 ft / 46 m
34 98 ft / 30 m 6,612 ft / 2,015 m 0.21° 348.82° Asphalt 0 ft / 0 m 0 ft / 0 m

Popular Alternatives